Time;durP1;ratioP1;P1;durP2;ratioP2;P2;SDS_P1;SDS_P2;PMS_P1;PMS_P2;Temp;Humidity;BMP_temperature;BMP_pressure;BME280_temperature;BME280_humidity;BME280_pressure;Samples;Min_cycle;Max_cycle;Signal;HPM_P1;HPM_P2
2021/01/13 00:00:13;;;;;;;0.30;0.30;;;20.90;43.40;;;;;;6249270;28;20025;-59
2021/01/13 00:03:13;;;;;;;0.50;0.30;;;20.80;42.90;;;;;;6248771;28;20052;-60
2021/01/13 00:06:16;;;;;;;0.57;0.43;;;20.90;42.40;;;;;;6252744;28;20029;-58
2021/01/13 00:09:16;;;;;;;1.25;0.55;;;20.90;42.40;;;;;;6254046;28;20025;-59
2021/01/13 00:12:17;;;;;;;0.55;0.40;;;20.90;42.80;;;;;;6267910;28;20017;-59
2021/01/13 00:15:17;;;;;;;0.88;0.30;;;20.90;42.70;;;;;;6277474;28;20028;-59
2021/01/13 00:18:18;;;;;;;0.57;0.30;;;20.80;42.70;;;;;;6278375;28;20024;-58
2021/01/13 00:21:18;;;;;;;0.50;0.40;;;20.90;42.90;;;;;;6296428;28;20060;-59
2021/01/13 00:24:20;;;;;;;0.38;0.35;;;20.90;43.60;;;;;;6277428;28;20050;-59
2021/01/13 00:27:24;;;;;;;0.55;0.40;;;20.90;42.70;;;;;;6277668;28;20033;-58
2021/01/13 00:30:24;;;;;;;1.55;0.30;;;20.90;43.10;;;;;;6278472;28;20381;-57
2021/01/13 00:33:25;;;;;;;0.43;0.35;;;20.80;42.90;;;;;;6277692;28;20036;-57
2021/01/13 00:36:29;;;;;;;0.55;0.30;;;20.90;42.90;;;;;;6276912;28;20293;-59
2021/01/13 00:39:29;;;;;;;0.30;0.30;;;20.80;43.30;;;;;;6277866;28;20025;-60
2021/01/13 00:42:33;;;;;;;0.30;0.30;;;20.80;43.10;;;;;;6278142;28;20451;-56
2021/01/13 00:45:33;;;;;;;0.45;0.38;;;20.80;42.90;;;;;;6276744;28;20028;-59
2021/01/13 00:48:34;;;;;;;0.20;0.20;;;20.80;43.20;;;;;;6278233;28;20134;-60
2021/01/13 00:51:36;;;;;;;0.63;0.30;;;20.80;42.70;;;;;;6277871;28;20052;-61
2021/01/13 00:54:36;;;;;;;0.85;0.55;;;20.80;43.20;;;;;;6277108;28;20024;-57
2021/01/13 00:57:37;;;;;;;0.55;0.40;;;20.80;43.70;;;;;;6293846;28;20023;-55
2021/01/13 01:00:37;;;;;;;0.25;0.25;;;20.80;43.40;;;;;;6294380;28;20032;-58
2021/01/13 01:03:38;;;;;;;0.82;0.50;;;20.80;43.40;;;;;;6293668;28;20024;-54
2021/01/13 01:06:39;;;;;;;0.68;0.47;;;20.80;43.40;;;;;;6294170;28;20033;-56
2021/01/13 01:09:39;;;;;;;0.80;0.40;;;20.80;42.70;;;;;;6294094;28;20042;-59
2021/01/13 01:12:40;;;;;;;0.40;0.40;;;20.80;42.80;;;;;;6294137;28;20560;-58
2021/01/13 01:15:40;;;;;;;1.55;0.30;;;20.80;42.90;;;;;;6293803;28;20016;-59
2021/01/13 01:18:41;;;;;;;0.28;0.28;;;20.80;43.60;;;;;;6293489;28;20059;-58
2021/01/13 01:21:42;;;;;;;0.20;0.20;;;20.70;43.10;;;;;;6293854;28;20108;-59
2021/01/13 01:24:43;;;;;;;0.75;0.30;;;20.70;43.10;;;;;;6292774;28;20056;-59
2021/01/13 01:27:45;;;;;;;0.80;0.30;;;20.70;42.90;;;;;;6292859;28;20686;-58
2021/01/13 01:30:46;;;;;;;0.85;0.40;;;20.70;42.50;;;;;;6293664;28;20098;-60
2021/01/13 01:33:46;;;;;;;0.63;0.20;;;20.70;42.90;;;;;;6292687;28;20032;-58
2021/01/13 01:36:47;;;;;;;1.60;0.55;;;20.70;43.10;;;;;;6292697;28;20029;-60
2021/01/13 01:39:47;;;;;;;0.60;0.30;;;20.70;43.30;;;;;;6293412;28;20048;-59
2021/01/13 01:42:50;;;;;;;0.77;0.43;;;20.70;43.40;;;;;;6293090;28;20476;-58
2021/01/13 01:45:51;;;;;;;0.70;0.35;;;20.70;43.00;;;;;;6292291;28;20016;-57
2021/01/13 01:48:53;;;;;;;0.63;0.30;;;20.70;43.20;;;;;;6292897;28;20020;-55
2021/01/13 01:52:14;;;;;;;0.70;0.30;;;20.70;43.50;;;;;;6293419;28;20066;-59
2021/01/13 01:55:15;;;;;;;0.55;0.30;;;20.70;43.50;;;;;;6291854;28;20508;-58
2021/01/13 01:58:28;;;;;;;1.13;0.60;;;20.70;43.10;;;;;;6309374;28;20032;-58
2021/01/13 02:01:44;;;;;;;0.60;0.40;;;20.60;43.40;;;;;;6293028;28;20397;-56
2021/01/13 02:04:46;;;;;;;0.60;0.30;;;20.60;42.60;;;;;;6291747;28;20020;-58
2021/01/13 02:07:49;;;;;;;0.88;0.30;;;20.70;43.10;;;;;;6292305;28;20048;-57
2021/01/13 02:10:51;;;;;;;0.82;0.40;;;20.60;42.80;;;;;;6309352;28;20060;-59
2021/01/13 02:13:54;;;;;;;0.45;0.30;;;20.60;43.40;;;;;;6292154;28;20042;-57
2021/01/13 02:16:57;;;;;;;0.98;0.55;;;20.60;42.80;;;;;;6274917;28;20501;-59
2021/01/13 02:20:11;;;;;;;0.82;0.38;;;20.60;43.10;;;;;;6275736;28;20580;-58
2021/01/13 02:23:32;;;;;;;0.80;0.35;;;20.60;42.70;;;;;;6275338;28;20028;-61
2021/01/13 02:26:58;;;;;;;0.32;0.22;;;20.60;42.90;;;;;;6290562;28;20052;-58
2021/01/13 02:30:02;;;;;;;0.88;0.38;;;20.60;42.60;;;;;;6276038;28;20035;-58
2021/01/13 02:33:09;;;;;;;0.98;0.40;;;20.60;43.10;;;;;;6274940;28;20036;-58
2021/01/13 02:36:20;;;;;;;0.65;0.30;;;20.60;43.20;;;;;;6274767;28;20024;-60
2021/01/13 02:39:21;;;;;;;0.88;0.40;;;20.60;43.50;;;;;;6275107;28;20050;-59
2021/01/13 02:42:32;;;;;;;1.20;0.52;;;20.60;43.00;;;;;;6275406;28;20025;-56
2021/01/13 02:45:40;;;;;;;1.08;0.47;;;20.60;43.60;;;;;;6273681;28;20028;-58
2021/01/13 02:48:41;;;;;;;0.50;0.40;;;20.60;43.40;;;;;;6274817;28;20535;-59
2021/01/13 02:51:41;;;;;;;0.47;0.30;;;20.50;43.20;;;;;;6275259;28;20020;-59
2021/01/13 02:54:54;;;;;;;1.55;0.70;;;20.50;43.20;;;;;;6273941;28;20182;-61
2021/01/13 02:57:57;;;;;;;0.60;0.40;;;20.50;43.10;;;;;;6274584;28;20028;-58
2021/01/13 03:01:05;;;;;;;0.52;0.30;;;20.50;43.20;;;;;;6291509;28;20021;-57
2021/01/13 03:04:07;;;;;;;0.73;0.28;;;20.50;43.40;;;;;;6273992;28;20400;-59
2021/01/13 03:07:13;;;;;;;0.43;0.40;;;20.50;43.20;;;;;;6273996;28;20119;-57
2021/01/13 03:10:17;;;;;;;0.60;0.30;;;20.50;43.20;;;;;;6274434;28;20021;-58
2021/01/13 03:13:24;;;;;;;0.80;0.30;;;20.50;43.00;;;;;;6274540;28;20040;-61
2021/01/13 03:16:29;;;;;;;1.38;0.65;;;20.50;42.70;;;;;;6273880;28;20316;-57
2021/01/13 03:19:48;;;;;;;0.88;0.40;;;20.50;43.10;;;;;;6274529;28;20439;-59
2021/01/13 03:23:13;;;;;;;0.57;0.30;;;20.50;43.10;;;;;;6274402;28;20036;-59
2021/01/13 03:26:21;;;;;;;1.23;0.45;;;20.50;43.20;;;;;;6273626;28;20027;-58
2021/01/13 03:29:23;;;;;;;3.33;0.32;;;20.50;43.50;;;;;;6292667;28;20039;-59
2021/01/13 03:32:32;;;;;;;2.03;0.68;;;20.50;42.80;;;;;;6265970;28;20472;-57
2021/01/13 03:36:05;;;;;;;1.70;0.60;;;20.50;42.70;;;;;;6265275;28;20040;-60
2021/01/13 03:39:07;;;;;;;1.27;0.52;;;20.50;44.00;;;;;;6268999;28;20032;-60
2021/01/13 03:42:08;;;;;;;0.95;0.30;;;20.50;43.50;;;;;;6287980;28;20104;-60
2021/01/13 03:45:12;;;;;;;0.90;0.30;;;20.50;43.60;;;;;;6270105;28;20032;-59
2021/01/13 03:48:30;;;;;;;0.73;0.30;;;20.50;43.80;;;;;;6287562;28;20033;-58
2021/01/13 03:51:58;;;;;;;0.60;0.40;;;20.50;43.70;;;;;;6287877;28;20716;-55
2021/01/13 03:55:02;;;;;;;0.88;0.45;;;20.50;43.30;;;;;;6286899;28;20113;-56
2021/01/13 03:58:09;;;;;;;1.17;0.45;;;20.40;42.50;;;;;;6287245;28;20143;-58
2021/01/13 04:01:39;;;;;;;1.23;0.50;;;20.40;42.60;;;;;;6271061;28;20029;-58
2021/01/13 04:05:19;;;;;;;0.70;0.40;;;20.40;42.70;;;;;;6269766;28;20394;-57
2021/01/13 04:08:23;;;;;;;1.42;0.57;;;20.40;42.10;;;;;;6270218;28;20021;-60
2021/01/13 04:11:23;;;;;;;2.05;0.40;;;20.40;42.70;;;;;;6287339;28;20017;-60
2021/01/13 04:14:45;;;;;;;1.95;0.52;;;20.40;42.70;;;;;;6269756;28;20025;-59
2021/01/13 04:17:46;;;;;;;1.25;0.47;;;20.40;43.40;;;;;;6270111;28;20025;-58
2021/01/13 04:20:47;;;;;;;0.50;0.32;;;20.40;43.60;;;;;;6271689;28;20355;-61
2021/01/13 04:23:48;;;;;;;0.70;0.40;;;20.40;42.70;;;;;;6269884;28;20052;-59
2021/01/13 04:26:49;;;;;;;1.08;0.40;;;20.40;43.50;;;;;;6286046;28;20482;-59
2021/01/13 04:29:50;;;;;;;2.22;0.50;;;20.40;43.40;;;;;;6286834;28;20382;-60
2021/01/13 04:32:57;;;;;;;0.93;0.40;;;20.40;43.70;;;;;;6269974;28;20032;-58
2021/01/13 04:35:58;;;;;;;1.85;0.43;;;20.40;44.10;;;;;;6269008;28;20044;-59
2021/01/13 04:39:01;;;;;;;1.13;0.47;;;20.40;42.60;;;;;;6269857;28;20017;-56
2021/01/13 04:42:02;;;;;;;0.95;0.40;;;20.40;43.60;;;;;;6269886;28;20032;-60
2021/01/13 04:45:06;;;;;;;0.77;0.43;;;20.40;42.80;;;;;;6268846;28;20367;-57
2021/01/13 04:48:08;;;;;;;1.37;0.23;;;20.40;43.10;;;;;;6269874;28;20028;-59
2021/01/13 04:51:12;;;;;;;0.30;0.22;;;20.40;42.30;;;;;;6268917;28;20036;-58
2021/01/13 04:54:15;;;;;;;1.27;0.47;;;20.40;43.20;;;;;;6285563;28;20036;-60
2021/01/13 04:57:52;;;;;;;1.48;0.50;;;20.30;41.90;;;;;;6285435;28;20043;-59
2021/01/13 05:01:26;;;;;;;3.17;0.70;;;20.30;43.20;;;;;;6270089;28;20044;-56
2021/01/13 05:04:27;;;;;;;0.77;0.40;;;20.30;43.00;;;;;;6268791;28;20120;-58
2021/01/13 05:07:34;;;;;;;1.52;0.60;;;20.30;43.30;;;;;;6268402;28;20023;-59
2021/01/13 05:10:41;;;;;;;1.60;0.63;;;20.30;42.60;;;;;;6269396;28;20112;-58
2021/01/13 05:13:46;;;;;;;1.45;0.63;;;20.40;42.60;;;;;;6293450;28;20027;-57
2021/01/13 05:16:50;;;;;;;1.25;0.60;;;20.40;42.00;;;;;;6259919;28;20031;-60
2021/01/13 05:20:06;;;;;;;0.93;0.40;;;20.40;41.90;;;;;;6276989;28;20506;-60
2021/01/13 05:23:12;;;;;;;0.93;0.50;;;20.40;42.00;;;;;;6268362;28;20036;-57
2021/01/13 05:26:18;;;;;;;1.20;0.50;;;20.40;41.90;;;;;;6268408;28;20029;-59
2021/01/13 05:29:32;;;;;;;1.38;0.65;;;20.50;42.00;;;;;;6285240;28;20124;-56
2021/01/13 05:32:33;;;;;;;1.77;0.45;;;20.50;42.10;;;;;;6269099;28;20029;-60
2021/01/13 05:35:44;;;;;;;0.95;0.50;;;20.50;42.10;;;;;;6267771;28;20025;-59
2021/01/13 05:39:04;;;;;;;0.93;0.40;;;20.50;42.00;;;;;;6285253;28;20032;-60
2021/01/13 05:42:05;;;;;;;1.00;0.50;;;20.50;42.10;;;;;;6268690;28;20025;-58
2021/01/13 05:45:06;;;;;;;1.10;0.45;;;20.50;42.10;;;;;;6267172;28;20025;-59
2021/01/13 05:48:22;;;;;;;1.23;0.30;;;20.50;42.10;;;;;;6268189;28;20017;-59
2021/01/13 05:51:31;;;;;;;;;;;20.50;42.70;;;;;;6268561;28;20540;-56
2021/01/13 05:54:35;;;;;;;2.72;0.50;;;20.50;42.10;;;;;;6267190;28;20361;-57
2021/01/13 05:57:36;;;;;;;1.92;0.50;;;20.50;42.10;;;;;;6283727;28;20502;-59
2021/01/13 06:00:37;;;;;;;4.38;0.77;;;20.50;42.10;;;;;;6267717;28;20025;-58
2021/01/13 06:03:45;;;;;;;1.27;0.55;;;20.50;42.10;;;;;;6267483;28;20060;-58
2021/01/13 06:07:06;;;;;;;0.88;0.40;;;20.50;42.00;;;;;;6266579;28;20119;-59
2021/01/13 06:10:08;;;;;;;0.85;0.40;;;20.60;42.10;;;;;;6267708;28;20385;-59
2021/01/13 06:13:15;;;;;;;1.23;0.60;;;20.70;41.90;;;;;;6267390;28;20031;-57
2021/01/13 06:16:16;;;;;;;3.13;0.60;;;20.80;41.70;;;;;;6283115;28;20363;-58
2021/01/13 06:19:18;;;;;;;0.68;0.32;;;20.90;41.60;;;;;;6267875;28;20024;-60
2021/01/13 06:22:29;;;;;;;1.65;0.50;;;21.00;41.60;;;;;;6284256;28;20029;-58
2021/01/13 06:25:30;;;;;;;0.63;0.40;;;21.00;41.50;;;;;;6266342;28;20703;-57
2021/01/13 06:28:33;;;;;;;0.63;0.40;;;21.10;41.50;;;;;;6266742;28;20035;-61
2021/01/13 06:31:43;;;;;;;0.73;0.40;;;21.10;41.60;;;;;;6267641;28;20020;-56
2021/01/13 06:34:57;;;;;;;0.68;0.52;;;21.10;41.70;;;;;;6266004;28;20029;-61
2021/01/13 06:37:59;;;;;;;1.50;0.70;;;21.20;41.70;;;;;;6266794;28;20443;-60
2021/01/13 06:41:01;;;;;;;0.60;0.43;;;21.20;41.70;;;;;;6283816;28;20098;-59
2021/01/13 06:44:06;;;;;;;1.10;0.70;;;21.20;41.70;;;;;;6282638;28;20134;-60
2021/01/13 06:47:07;;;;;;;1.08;0.68;;;21.30;41.70;;;;;;6268829;28;20021;-62
2021/01/13 06:50:08;;;;;;;6.05;0.80;;;21.20;41.30;;;;;;6266971;28;20043;-61
2021/01/13 06:53:11;;;;;;;10.73;1.13;;;21.30;41.30;;;;;;6259271;28;20021;-59
2021/01/13 06:56:15;;;;;;;5.90;0.75;;;21.40;41.30;;;;;;6291696;28;20031;-60
2021/01/13 06:59:20;;;;;;;58.30;2.53;;;21.50;41.10;;;;;;6268262;28;20045;-62
2021/01/13 07:02:40;;;;;;;18.07;1.03;;;21.50;41.50;;;;;;6283234;28;20027;-58
2021/01/13 07:05:41;;;;;;;5.57;0.90;;;21.70;43.20;;;;;;6277185;28;20039;-62
2021/01/13 07:08:42;;;;;;;5.82;1.15;;;21.80;43.00;;;;;;6275919;28;20120;-62
2021/01/13 07:11:43;;;;;;;5.70;0.95;;;21.80;42.60;;;;;;6274674;28;20469;-61
2021/01/13 07:14:45;;;;;;;7.65;0.70;;;21.90;42.40;;;;;;6284920;28;20021;-62
2021/01/13 07:17:46;;;;;;;4.20;1.13;;;21.90;41.80;;;;;;6273857;28;20543;-60
2021/01/13 07:20:48;;;;;;;5.43;0.80;;;21.90;42.30;;;;;;6290898;28;20040;-60
2021/01/13 07:23:48;;;;;;;11.85;0.93;;;21.90;42.70;;;;;;6288279;28;20362;-61
2021/01/13 07:26:50;;;;;;;4.90;0.80;;;21.90;42.20;;;;;;6266107;28;20100;-63
2021/01/13 07:29:54;;;;;;;3.35;1.15;;;21.90;42.80;;;;;;6274096;28;20090;-62
2021/01/13 07:33:00;;;;;;;1.37;0.73;;;21.90;42.30;;;;;;6265848;28;20025;-59
2021/01/13 07:36:02;;;;;;;4.97;0.80;;;22.00;42.80;;;;;;6283413;28;20187;-61
2021/01/13 07:39:05;;;;;;;1.63;0.85;;;22.00;42.70;;;;;;6271184;28;20477;-59
2021/01/13 07:42:28;;;;;;;2.60;0.85;;;22.00;43.00;;;;;;6291487;28;20035;-61
2021/01/13 07:45:52;;;;;;;2.45;0.98;;;22.00;42.90;;;;;;6273799;28;20025;-61
2021/01/13 07:49:19;;;;;;;2.65;0.82;;;22.00;42.80;;;;;;6291344;28;20022;-60
2021/01/13 07:52:24;;;;;;;3.58;1.00;;;22.00;43.20;;;;;;6268957;28;20017;-56
2021/01/13 07:55:25;;;;;;;2.47;0.70;;;22.00;42.90;;;;;;6274535;28;20027;-62
2021/01/13 07:58:35;;;;;;;5.68;1.00;;;22.00;42.80;;;;;;6273365;28;20033;-61
2021/01/13 08:01:36;;;;;;;3.63;1.00;;;21.90;42.80;;;;;;6273566;28;20021;-61
2021/01/13 08:05:13;;;;;;;1.25;0.80;;;21.80;42.80;;;;;;6273356;28;20059;-57
2021/01/13 08:08:24;;;;;;;1.67;0.70;;;21.80;42.90;;;;;;6249216;28;20025;-60
2021/01/13 08:11:59;;;;;;;4.30;1.13;;;21.80;42.90;;;;;;6268999;28;20024;-59
2021/01/13 08:15:37;;;;;;;3.75;0.88;;;21.70;42.70;;;;;;6273439;28;20051;-61
2021/01/13 08:19:15;;;;;;;1.40;0.80;;;21.70;42.80;;;;;;6249370;28;20017;-61
2021/01/13 08:22:20;;;;;;;4.05;0.82;;;21.70;42.70;;;;;;6273207;28;20063;-61
2021/01/13 08:25:27;;;;;;;2.83;1.33;;;21.70;42.70;;;;;;6274601;28;20082;-61
2021/01/13 08:28:36;;;;;;;3.50;0.85;;;21.70;42.60;;;;;;6275321;28;20032;-60
2021/01/13 08:31:41;;;;;;;1.40;0.90;;;21.70;42.70;;;;;;6278057;28;20082;-60
2021/01/13 08:34:50;;;;;;;1.38;0.80;;;21.70;42.60;;;;;;6295824;28;20159;-62
2021/01/13 08:38:08;;;;;;;2.00;0.80;;;21.70;42.70;;;;;;6278209;28;20044;-58
2021/01/13 08:41:25;;;;;;;3.78;1.20;;;21.70;44.00;;;;;;6295457;28;20342;-61
2021/01/13 08:44:39;;;;;;;2.53;0.90;;;21.80;42.60;;;;;;6277666;28;20103;-61
2021/01/13 08:48:10;;;;;;;2.67;1.25;;;21.80;42.60;;;;;;6278068;28;20098;-60
2021/01/13 08:51:12;;;;;;;7.22;1.00;;;21.90;42.80;;;;;;6273312;28;20032;-58
2021/01/13 08:54:23;;;;;;;1.10;0.70;;;21.90;42.60;;;;;;6277642;28;20031;-60
2021/01/13 08:57:25;;;;;;;15.07;1.10;;;21.90;42.50;;;;;;6286360;28;20033;-59
2021/01/13 09:00:26;;;;;;;1.15;0.70;;;21.90;42.60;;;;;;6280193;28;20031;-60
2021/01/13 09:03:31;;;;;;;2.17;0.70;;;21.90;42.70;;;;;;6276664;28;20025;-60
2021/01/13 09:06:33;;;;;;;1.42;0.75;;;22.00;42.50;;;;;;6269432;28;20028;-60
2021/01/13 09:09:40;;;;;;;5.22;0.73;;;22.00;42.50;;;;;;6269136;28;20401;-60
2021/01/13 09:12:45;;;;;;;2.53;0.80;;;22.00;42.60;;;;;;6268991;28;20017;-59
2021/01/13 09:15:46;;;;;;;2.40;1.02;;;22.00;42.60;;;;;;6272765;28;20028;-59
2021/01/13 09:18:58;;;;;;;2.78;0.98;;;22.00;42.50;;;;;;6293683;28;20089;-59
2021/01/13 09:22:00;;;;;;;0.95;0.63;;;22.00;42.60;;;;;;6276735;28;20533;-59
2021/01/13 09:25:02;;;;;;;4.55;0.85;;;22.00;42.70;;;;;;6293746;28;20119;-62
2021/01/13 09:28:14;;;;;;;2.95;1.02;;;22.00;42.60;;;;;;6276542;28;20273;-60
2021/01/13 09:31:15;;;;;;;3.83;0.93;;;22.00;42.40;;;;;;6273827;28;20016;-60
2021/01/13 09:34:30;;;;;;;2.42;0.93;;;22.00;42.40;;;;;;6276849;28;20515;-61
2021/01/13 09:37:51;;;;;;;6.15;1.00;;;22.00;42.30;;;;;;6276229;28;20117;-56
2021/01/13 09:40:54;;;;;;;4.22;1.33;;;22.00;42.60;;;;;;6276390;28;20032;-60
2021/01/13 09:44:10;;;;;;;3.17;1.05;;;22.10;42.40;;;;;;6276915;28;20024;-56
2021/01/13 09:47:23;;;;;;;2.90;0.90;;;22.00;42.40;;;;;;6274122;28;20021;-61
2021/01/13 09:50:23;;;;;;;2.83;0.93;;;22.00;42.40;;;;;;6286148;28;20484;-55
2021/01/13 09:53:29;;;;;;;1.55;0.88;;;22.00;42.40;;;;;;6277410;28;20028;-57
2021/01/13 09:56:32;;;;;;;4.32;0.90;;;22.00;42.50;;;;;;6276447;28;20027;-53
2021/01/13 09:59:37;;;;;;;1.90;1.00;;;22.10;42.50;;;;;;6276563;28;20093;-58
2021/01/13 10:02:42;;;;;;;2.50;1.10;;;22.10;42.40;;;;;;6276130;28;20398;-60
2021/01/13 12:31:50;;;;;;;2.40;0.88;;;22.20;41.00;;;;;;6468559;22;20429;-64
2021/01/13 12:34:55;;;;;;;2.43;0.80;;;22.10;41.70;;;;;;6161008;28;67971;-61
2021/01/13 12:37:56;;;;;;;6.40;1.10;;;22.10;41.60;;;;;;6261345;28;20124;-63
2021/01/13 12:41:03;;;;;;;1.67;0.68;;;22.10;41.70;;;;;;6260827;28;20147;-61
2021/01/13 12:44:06;;;;;;;2.15;0.75;;;22.10;41.70;;;;;;6263548;28;20075;-65
2021/01/13 12:47:09;;;;;;;5.05;1.10;;;22.10;41.60;;;;;;6261122;28;20083;-63
2021/01/13 12:50:09;;;;;;;1.90;0.95;;;22.20;41.80;;;;;;6262214;28;20465;-67
2021/01/13 12:53:10;;;;;;;2.08;0.98;;;22.20;41.60;;;;;;6263314;28;20029;-62
2021/01/13 12:56:23;;;;;;;3.20;1.10;;;22.20;41.40;;;;;;6256913;28;20088;-65
2021/01/13 12:59:24;;;;;;;2.90;1.20;;;22.30;41.30;;;;;;6247209;28;20391;-67
2021/01/13 13:02:24;;;;;;;4.47;1.05;;;22.30;41.20;;;;;;6259975;28;20041;-65
2021/01/13 13:05:24;;;;;;;1.45;0.80;;;22.40;41.10;;;;;;6263174;28;20036;-63
2021/01/13 13:08:25;;;;;;;4.22;1.00;;;22.40;41.10;;;;;;6260094;28;20132;-61
2021/01/13 13:11:27;;;;;;;2.42;0.90;;;22.50;41.60;;;;;;6260494;28;20412;-66
2021/01/13 13:14:27;;;;;;;1.98;0.73;;;22.40;40.90;;;;;;6183621;28;59910;-61
2021/01/13 13:17:28;;;;;;;25.88;1.50;;;22.50;40.90;;;;;;6293027;28;20028;-58
2021/01/13 13:20:28;;;;;;;3.67;1.00;;;22.40;41.10;;;;;;6232241;28;53956;-62
2021/01/13 13:23:29;;;;;;;2.65;0.90;;;22.40;41.20;;;;;;6256019;28;20447;-61
2021/01/13 13:26:30;;;;;;;6.63;1.00;;;22.30;41.20;;;;;;6288844;28;20037;-72
2021/01/13 13:29:30;;;;;;;7.00;1.08;;;22.30;41.70;;;;;;6290111;28;20109;-73
2021/01/13 13:32:31;;;;;;;12.18;1.15;;;22.40;41.20;;;;;;6288697;28;20036;-70
2021/01/13 13:35:32;;;;;;;11.15;1.17;;;22.40;41.70;;;;;;6288638;28;20309;-70
2021/01/13 13:38:32;;;;;;;1.98;0.88;;;22.40;41.40;;;;;;6287652;28;20040;-71
2021/01/13 13:41:33;;;;;;;4.25;1.15;;;22.60;41.40;;;;;;6278287;28;20534;-73
2021/01/13 13:44:34;;;;;;;7.18;1.25;;;22.60;41.10;;;;;;6272501;28;20386;-73
2021/01/13 13:47:35;;;;;;;10.50;1.25;;;22.50;41.00;;;;;;6271571;28;20073;-72
2021/01/13 13:50:35;;;;;;;15.13;1.33;;;22.50;40.90;;;;;;6270093;28;20133;-74
2021/01/13 13:53:37;;;;;;;12.77;1.40;;;22.50;40.70;;;;;;6271827;28;20070;-73
2021/01/13 13:56:37;;;;;;;14.50;1.40;;;22.50;40.70;;;;;;6271244;28;20037;-72
2021/01/13 13:59:38;;;;;;;15.00;1.58;;;22.50;41.20;;;;;;6273231;28;20437;-74
2021/01/13 14:02:38;;;;;;;10.80;1.30;;;22.70;41.10;;;;;;6271259;28;20056;-74
2021/01/13 14:05:42;;;;;;;19.10;1.50;;;22.80;41.20;;;;;;6272104;28;20398;-76
2021/01/13 14:08:42;;;;;;;7.90;1.10;;;22.90;41.20;;;;;;6271142;28;20033;-73
2021/01/13 14:11:43;;;;;;;6.72;0.98;;;23.00;41.00;;;;;;6273021;28;20371;-77
2021/01/13 14:14:43;;;;;;;11.65;1.50;;;23.00;41.00;;;;;;6272370;28;20037;-73
2021/01/13 14:17:45;;;;;;;15.45;1.20;;;23.10;41.50;;;;;;6272323;28;20025;-74
2021/01/13 14:20:45;;;;;;;18.83;1.63;;;23.10;41.20;;;;;;6272709;28;20414;-74
2021/01/13 14:23:46;;;;;;;11.95;1.20;;;23.10;41.50;;;;;;6271516;28;20128;-73
2021/01/13 14:26:46;;;;;;;17.60;1.55;;;23.10;42.40;;;;;;6271365;28;20037;-70
2021/01/13 14:29:47;;;;;;;12.27;1.20;;;23.10;42.00;;;;;;6272283;28;20037;-74
2021/01/13 14:32:51;;;;;;;15.63;1.40;;;23.10;42.40;;;;;;6272146;28;20372;-78
2021/01/13 14:35:51;;;;;;;22.10;2.08;;;23.10;42.60;;;;;;6272775;28;20032;-77
2021/01/13 14:38:52;;;;;;;8.98;1.50;;;23.00;42.30;;;;;;6270900;28;20056;-74
2021/01/13 14:41:53;;;;;;;18.65;1.70;;;22.90;42.60;;;;;;6272272;28;20458;-78
2021/01/13 14:44:53;;;;;;;8.30;1.17;;;22.80;42.90;;;;;;6271841;28;20033;-79
2021/01/13 14:47:58;;;;;;;6.18;1.17;;;22.80;42.90;;;;;;6271141;28;20044;-76
2021/01/13 14:50:58;;;;;;;14.15;1.38;;;22.80;43.00;;;;;;6271458;28;20029;-76
2021/01/13 14:53:59;;;;;;;24.58;1.58;;;23.00;42.80;;;;;;6270329;28;20416;-71
2021/01/13 14:57:00;;;;;;;14.27;1.52;;;22.90;42.70;;;;;;6272256;28;20021;-74
2021/01/13 15:00:00;;;;;;;19.85;1.50;;;22.90;42.60;;;;;;6271413;28;20159;-76
2021/01/13 15:03:01;;;;;;;10.02;1.50;;;22.90;43.00;;;;;;6270119;28;20033;-73
2021/01/13 15:06:01;;;;;;;17.00;1.52;;;22.80;42.80;;;;;;6271703;28;20085;-75
2021/01/13 15:09:02;;;;;;;27.15;1.60;;;22.80;43.10;;;;;;6270941;28;20391;-74
2021/01/13 15:12:06;;;;;;;27.33;1.70;;;22.70;43.10;;;;;;6269197;28;20053;-75
2021/01/13 15:15:07;;;;;;;13.15;1.65;;;22.60;42.70;;;;;;6269394;28;20045;-75
2021/01/13 15:18:08;;;;;;;10.40;1.40;;;22.60;42.50;;;;;;6271012;28;20032;-75
2021/01/13 15:21:16;;;;;;;15.65;1.17;;;22.50;42.50;;;;;;6272003;28;20498;-75
2021/01/13 15:24:17;;;;;;;14.25;1.33;;;22.60;42.70;;;;;;6270328;28;20044;-75
2021/01/13 15:27:18;;;;;;;10.50;1.65;;;22.60;42.30;;;;;;6270079;28;20491;-72
2021/01/13 15:30:19;;;;;;;12.32;1.27;;;22.60;42.40;;;;;;6270377;28;20036;-77
2021/01/13 15:33:20;;;;;;;16.25;1.70;;;22.70;42.50;;;;;;6270969;28;20488;-75
2021/01/13 15:36:28;;;;;;;9.55;1.38;;;22.80;42.50;;;;;;6270672;28;20033;-73
2021/01/13 15:39:30;;;;;;;7.75;1.27;;;22.80;42.10;;;;;;6269177;28;20033;-74
2021/01/13 15:42:30;;;;;;;13.10;1.20;;;22.70;42.30;;;;;;6271080;28;20037;-74
2021/01/13 15:45:32;;;;;;;18.00;1.48;;;22.70;42.50;;;;;;6270689;28;20059;-72
2021/01/13 15:48:32;;;;;;;13.75;1.33;;;22.70;42.60;;;;;;6270378;28;20116;-74
2021/01/13 15:51:42;;;;;;;18.38;1.25;;;22.70;42.90;;;;;;6269717;28;20486;-73
2021/01/13 15:54:44;;;;;;;11.00;1.85;;;22.70;43.10;;;;;;6270164;28;20051;-73
2021/01/13 15:57:50;;;;;;;10.10;1.35;;;22.70;43.20;;;;;;6270327;28;20041;-73
2021/01/13 16:00:54;;;;;;;18.33;2.22;;;22.70;43.10;;;;;;6269814;28;20029;-73
2021/01/13 16:03:55;;;;;;;12.57;1.50;;;22.70;44.00;;;;;;6267295;28;20103;-73
2021/01/13 16:06:56;;;;;;;13.60;1.77;;;22.60;44.10;;;;;;6270059;28;20299;-72
2021/01/13 16:09:57;;;;;;;14.45;1.35;;;22.60;44.20;;;;;;6268896;28;20052;-75
2021/01/13 16:12:57;;;;;;;13.65;1.20;;;22.60;44.00;;;;;;6270142;28;20076;-74
2021/01/13 16:15:58;;;;;;;7.35;1.17;;;22.60;44.40;;;;;;6268195;28;20123;-71
2021/01/13 16:18:59;;;;;;;12.40;1.08;;;22.60;43.80;;;;;;6268429;28;20049;-74
2021/01/13 16:22:02;;;;;;;4.15;1.27;;;22.60;43.40;;;;;;6268957;28;20064;-72
2021/01/13 16:25:07;;;;;;;7.15;1.15;;;22.60;43.40;;;;;;6269506;28;20037;-75
2021/01/13 16:28:08;;;;;;;;;;;22.60;43.40;;;;;;6270179;28;20511;-75
2021/01/13 16:31:09;;;;;;;8.45;1.67;;;22.70;43.30;;;;;;6267830;28;19922;-75
2021/01/13 16:34:13;;;;;;;18.10;1.50;;;22.60;43.90;;;;;;6274085;28;20099;-74
2021/01/13 16:37:13;;;;;;;10.03;1.23;;;22.60;44.10;;;;;;6270550;28;20094;-73
2021/01/13 16:40:14;;;;;;;9.88;1.17;;;22.50;43.20;;;;;;6271575;28;20033;-74
2021/01/13 16:43:17;;;;;;;5.18;1.25;;;22.50;43.70;;;;;;6270775;28;20060;-74
2021/01/13 16:46:19;;;;;;;31.15;1.95;;;22.50;43.60;;;;;;6273426;28;20040;-75
2021/01/13 16:49:19;;;;;;;12.00;1.15;;;22.50;43.80;;;;;;6271171;28;20099;-75
2021/01/13 16:52:27;;;;;;;14.27;1.17;;;22.50;43.60;;;;;;6270391;28;20371;-75
2021/01/13 16:55:28;;;;;;;3.80;1.15;;;22.50;43.10;;;;;;6267205;28;20156;-75
2021/01/13 16:58:31;;;;;;;16.13;1.40;;;22.50;43.20;;;;;;6269799;28;20025;-76
2021/01/13 17:01:32;;;;;;;18.52;1.35;;;22.50;43.10;;;;;;6268287;28;20439;-75
2021/01/13 17:04:32;;;;;;;7.63;1.35;;;22.50;43.40;;;;;;6268684;28;20043;-76
2021/01/13 17:07:35;;;;;;;9.23;1.23;;;22.50;42.60;;;;;;6269238;28;20033;-77
2021/01/13 17:10:36;;;;;;;3.88;1.23;;;22.40;42.60;;;;;;6270260;28;20033;-75
2021/01/13 17:13:37;;;;;;;6.75;1.17;;;22.50;42.60;;;;;;6269831;28;20060;-75
2021/01/13 17:16:38;;;;;;;7.95;1.45;;;22.50;42.70;;;;;;6269961;28;20525;-78
2021/01/13 17:19:40;;;;;;;6.50;1.30;;;22.50;42.60;;;;;;6271469;28;20033;-76
2021/01/13 17:22:41;;;;;;;6.47;1.30;;;22.50;42.70;;;;;;6271309;28;20029;-73
2021/01/13 17:25:43;;;;;;;18.50;1.45;;;22.50;42.60;;;;;;6270812;28;20116;-73
2021/01/13 17:28:44;;;;;;;21.67;1.52;;;22.40;42.40;;;;;;6271726;28;20036;-75
2021/01/13 17:31:44;;;;;;;19.35;1.48;;;22.40;42.60;;;;;;6270153;28;20884;-73
2021/01/13 17:34:45;;;;;;;14.23;1.60;;;22.40;42.60;;;;;;6272371;28;20073;-74
2021/01/13 17:37:46;;;;;;;37.08;2.00;;;22.40;42.50;;;;;;6272318;28;20375;-75
2021/01/13 17:40:47;;;;;;;19.95;2.03;;;22.40;42.90;;;;;;6274149;28;20064;-75
2021/01/13 17:43:48;;;;;;;11.20;1.15;;;22.30;42.60;;;;;;6272611;28;20106;-75
2021/01/13 17:46:54;;;;;;;16.38;2.00;;;22.30;42.60;;;;;;6271701;28;20037;-74
2021/01/13 17:49:56;;;;;;;25.52;1.40;;;22.30;42.70;;;;;;6272254;28;20580;-74
2021/01/13 17:53:02;;;;;;;26.15;1.50;;;22.30;42.90;;;;;;6235471;28;20490;-76
2021/01/13 17:56:05;;;;;;;10.40;1.40;;;22.20;42.20;;;;;;6245208;28;20360;-75
2021/01/13 17:59:05;;;;;;;7.72;1.02;;;22.10;42.40;;;;;;6243164;28;20103;-75
2021/01/13 18:02:13;;;;;;;5.28;1.10;;;22.00;42.60;;;;;;6241091;28;20080;-75
2021/01/13 18:05:14;;;;;;;3.53;0.90;;;22.00;42.60;;;;;;6244747;28;20029;-75
2021/01/13 18:08:15;;;;;;;7.57;1.05;;;22.00;42.80;;;;;;6244749;28;20056;-75
2021/01/13 18:11:15;;;;;;;5.50;1.17;;;21.90;42.70;;;;;;6244981;28;20072;-75
2021/01/13 18:14:16;;;;;;;11.00;1.10;;;21.90;42.70;;;;;;6216822;28;20034;-75
2021/01/13 18:17:16;;;;;;;4.05;1.10;;;21.90;42.70;;;;;;6216967;28;20113;-75
2021/01/13 18:20:17;;;;;;;7.25;0.98;;;21.90;42.70;;;;;;6217024;28;20030;-75
2021/01/13 18:23:20;;;;;;;2.05;0.77;;;21.80;42.70;;;;;;6216103;28;20591;-75
2021/01/13 18:26:21;;;;;;;5.20;0.90;;;21.80;42.70;;;;;;6217127;28;20072;-75